Portada
METAR-TAF:

METAR-TAF

Aeroports :

Veracruz, Mèxic

latitud: 19-09N, longitud: 096-11W, altitud: 32 m

Observació

L'informe es va fer fa 1 hora i 23 minuts, a les 23:40 UTC
Vent 8 kt del Est/Nord-Est
Temperatura 29°C
Humitat 66%
Pressió 1012 hPa
Visibilitat: 11.3 km
Cel clar

METAR: MMVR 162340Z 07008KT 7SM SKC 29/22 A2989 RMK SLP116 57012 901 HZY

Hora: 20:03 (01:03 UTC)

Pronòstic

L'informe es va fer fa 8 hores i 19 minuts, a les 16:44 UTC
Pronòstic vàlid del 16 a les 18 UTC al 17 a les 18 UTC
Vent 12 kt del Nord-Est
Visibilitat: 10 km
Núvols disperses a una alçada de 1500 ft
A partir de les 17 a les 0300 UTC
Vent kt del Nord
Visibilitat: 10 km
Cel clar
A partir de les 17 a les 1200 UTC
Vent kt del Nord
Visibilitat: 8.0 km
Cel ennuvolat a una alçada de 2000 ft
calitja

TAF: MMVR 161644Z 1618/1718 04012KT P6SM SCT015 TX32/1620Z TN25/1712Z FM170300 00000KT P6SM SKC FM171200 00000KT 5SM HZ BKN020

Observacions i pronòstics meteorològics de més de 4000 aeroports (METAR i TAF).

Les estacions disponibles són els punts grocs i vermells al mapa.

Posi el ratolí al punt desitjat per veure el nom de l'estació.

Feu clic per veure les observacions i els pronòstics meteorològics.

Per canviar el mapa: feu clic els botons verds amb una creu de color negre per apropar; al botó verd amb un guió per allunyar la imatge; o en les fletxes verdes per a mapes adjacents.


METAR-TAF: